Time;durP1;ratioP1;P1;durP2;ratioP2;P2;SDS_P1;SDS_P2;PMS_P1;PMS_P2;Temp;Humidity;BMP_temperature;BMP_pressure;BME280_temperature;BME280_humidity;BME280_pressure;Samples;Min_cycle;Max_cycle;Signal;HPM_P1;HPM_P2
2022/08/01 00:02:02;;;;;;;12.73;6.60;;;;;;;20.36;92.38;101781.41;4967457;28;20053;-61
2022/08/01 00:04:28;;;;;;;14.90;7.15;;;;;;;20.37;92.31;101781.31;4967499;28;20123;-61
2022/08/01 00:06:53;;;;;;;14.20;7.53;;;;;;;20.32;92.34;101783.44;4966843;28;20034;-61
2022/08/01 00:09:18;;;;;;;16.77;8.20;;;;;;;20.38;91.90;101784.88;4967860;28;20027;-61
2022/08/01 00:11:44;;;;;;;14.23;7.57;;;;;;;20.39;92.19;101786.56;4966177;28;20030;-61
2022/08/01 00:14:10;;;;;;;13.18;8.13;;;;;;;20.41;91.97;101790.03;4950119;28;20030;-61
2022/08/01 00:16:36;;;;;;;13.07;7.15;;;;;;;20.53;91.70;101791.09;4967137;28;20062;-61
2022/08/01 00:19:01;;;;;;;13.20;7.20;;;;;;;20.48;91.48;101791.38;4967454;28;20553;-61
2022/08/01 00:21:26;;;;;;;14.50;7.93;;;;;;;20.37;92.61;101794.69;4967015;28;20031;-61
2022/08/01 00:23:52;;;;;;;14.60;7.53;;;;;;;20.41;92.88;101793.53;4967647;28;20030;-61
2022/08/01 00:26:17;;;;;;;12.55;7.22;;;;;;;20.39;92.25;101794.59;4966769;28;20363;-61
2022/08/01 00:28:42;;;;;;;17.02;8.77;;;;;;;20.42;92.30;101797.97;4967489;28;20038;-61
2022/08/01 00:31:08;;;;;;;15.43;9.05;;;;;;;20.41;92.30;101804.25;4966425;28;20027;-61
2022/08/01 00:33:33;;;;;;;12.10;8.35;;;;;;;20.40;92.37;101794.50;4967185;28;20039;-61
2022/08/01 00:35:58;;;;;;;13.65;8.50;;;;;;;20.38;92.39;101801.75;4966075;28;20458;-61
2022/08/01 00:38:24;;;;;;;13.77;8.38;;;;;;;20.42;92.23;101808.69;4966610;28;20356;-61
2022/08/01 00:40:50;;;;;;;16.98;9.02;;;;;;;20.43;92.17;101798.81;4966599;28;20037;-62
2022/08/01 00:43:15;;;;;;;13.93;8.68;;;;;;;20.38;92.83;101804.44;4965535;28;20050;-62
2022/08/01 00:45:41;;;;;;;18.20;9.73;;;;;;;20.40;92.38;101802.53;4966551;28;20050;-61
2022/08/01 00:48:06;;;;;;;16.88;8.68;;;;;;;20.44;92.43;101795.19;4949573;28;20027;-61
2022/08/01 00:50:32;;;;;;;15.45;8.68;;;;;;;20.37;92.83;101796.50;4966612;28;20022;-61
2022/08/01 00:52:58;;;;;;;14.13;8.65;;;;;;;20.27;93.25;101794.41;4966656;28;20065;-61
2022/08/01 00:55:24;;;;;;;18.23;8.55;;;;;;;20.35;93.21;101801.97;4965980;28;20019;-61
2022/08/01 00:57:50;;;;;;;13.85;8.18;;;;;;;20.38;92.77;101795.56;4949661;28;20512;-61
2022/08/01 01:00:15;;;;;;;12.70;8.00;;;;;;;20.39;92.62;101795.47;4965385;28;20030;-62
2022/08/01 01:02:40;;;;;;;12.80;7.72;;;;;;;20.36;93.04;101801.00;4964902;28;20038;-62
2022/08/01 01:05:06;;;;;;;13.52;7.90;;;;;;;20.36;92.81;101797.47;4966099;28;20054;-60
2022/08/01 01:07:35;;;;;;;16.17;7.57;;;;;;;20.35;93.29;101796.63;4975320;23;20560;-61
2022/08/01 01:10:14;;;;;;;13.83;6.90;;;;;;;20.33;93.49;101788.69;5003500;28;20030;-61
2022/08/01 01:12:48;;;;;;;11.82;6.47;;;;;;;20.32;93.28;101792.28;5004969;28;20121;-60
2022/08/01 01:15:30;;;;;;;13.98;6.55;;;;;;;20.35;93.19;101785.91;4988032;28;20041;-60
2022/08/01 01:18:19;;;;;;;10.82;5.00;;;;;;;20.31;93.00;101795.94;5005021;28;20033;-61
2022/08/01 01:20:46;;;;;;;8.27;5.15;;;;;;;20.27;93.43;101793.53;5005562;28;20029;-62
2022/08/01 01:23:34;;;;;;;10.55;4.97;;;;;;;20.24;93.78;101797.25;4987996;28;20036;-62
2022/08/01 01:26:37;;;;;;;9.43;5.20;;;;;;;20.27;93.69;101790.84;4987548;28;20097;-61
2022/08/01 01:29:14;;;;;;;7.53;4.05;;;;;;;20.22;93.92;101791.13;5004939;28;20054;-61
2022/08/01 01:32:08;;;;;;;7.75;4.18;;;;;;;20.18;93.95;101785.13;4988177;28;20057;-62
2022/08/01 01:34:36;;;;;;;7.95;4.40;;;;;;;20.11;94.65;101788.25;4995485;28;20125;-60
2022/08/01 01:37:02;;;;;;;7.72;4.40;;;;;;;20.07;94.32;101787.56;4987047;28;20030;-61
2022/08/01 01:39:28;;;;;;;5.70;4.07;;;;;;;19.97;94.98;101791.69;4987074;28;20037;-62
2022/08/01 01:41:55;;;;;;;9.98;4.93;;;;;;;19.90;95.84;101801.91;4986142;28;20050;-61
2022/08/01 01:44:20;;;;;;;9.40;5.00;;;;;;;19.89;95.78;101795.69;4987094;28;20764;-61
2022/08/01 01:46:47;;;;;;;10.35;5.03;;;;;;;19.95;95.52;101795.31;5004446;28;20018;-61
2022/08/01 01:49:13;;;;;;;8.32;4.13;;;;;;;20.01;95.34;101795.94;5004983;28;20037;-61
2022/08/01 01:51:40;;;;;;;7.88;4.22;;;;;;;19.99;95.31;101797.81;5005079;28;20066;-61
2022/08/01 01:54:06;;;;;;;11.32;4.50;;;;;;;20.00;95.09;101804.88;4987935;28;20037;-61
2022/08/01 01:56:32;;;;;;;6.53;3.90;;;;;;;19.97;95.61;101810.41;5004606;28;20075;-61
2022/08/01 01:59:00;;;;;;;8.73;4.18;;;;;;;20.00;95.26;101800.41;4987530;28;20037;-61
2022/08/01 02:01:28;;;;;;;6.82;4.22;;;;;;;19.96;95.41;101809.56;5004026;28;20240;-60
2022/08/01 02:03:55;;;;;;;4.85;3.33;;;;;;;19.95;95.95;101805.16;4987055;28;20532;-60
2022/08/01 02:06:22;;;;;;;9.35;4.82;;;;;;;19.95;95.70;101805.16;4985901;28;20384;-61
2022/08/01 02:08:48;;;;;;;8.10;4.13;;;;;;;20.00;95.60;101796.88;5005018;28;20081;-61
2022/08/01 02:11:20;;;;;;;7.57;4.57;;;;;;;19.92;95.44;101797.31;5003373;28;20109;-61
2022/08/01 02:13:51;;;;;;;8.10;4.07;;;;;;;19.91;95.80;101796.47;5004484;28;20026;-61
2022/08/01 02:16:18;;;;;;;6.72;4.38;;;;;;;19.91;95.59;101798.28;4986448;28;20029;-61
2022/08/01 02:18:43;;;;;;;5.57;3.60;;;;;;;19.92;95.57;101803.53;4987007;28;20040;-61
2022/08/01 02:21:12;;;;;;;5.88;3.55;;;;;;;19.99;95.64;101806.72;5004713;28;20038;-62
2022/08/01 02:23:38;;;;;;;7.93;4.28;;;;;;;19.98;95.50;101794.28;4986978;28;20018;-62
2022/08/01 02:26:08;;;;;;;8.07;4.97;;;;;;;19.90;95.14;101802.75;5004494;28;20038;-61
2022/08/01 02:28:38;;;;;;;5.03;3.72;;;;;;;19.86;95.66;101803.03;5004754;28;20114;-62
2022/08/01 02:31:06;;;;;;;6.20;3.65;;;;;;;19.86;95.96;101803.88;4985888;28;20036;-61
2022/08/01 02:33:38;;;;;;;7.47;4.05;;;;;;;19.83;96.11;101802.25;5004049;28;20068;-62
2022/08/01 02:36:05;;;;;;;9.20;4.43;;;;;;;19.86;95.57;101801.22;4986231;28;20077;-62
2022/08/01 02:38:32;;;;;;;9.00;4.00;;;;;;;19.85;95.69;101804.84;4985426;28;20061;-61
2022/08/01 02:41:04;;;;;;;9.05;4.45;;;;;;;19.82;95.47;101795.19;5002714;28;20037;-60
2022/08/01 02:43:30;;;;;;;11.75;3.95;;;;;;;19.82;95.59;101805.03;4986127;28;20365;-61
2022/08/01 02:45:58;;;;;;;7.00;3.50;;;;;;;19.85;95.27;101810.19;4986288;28;20025;-60
2022/08/01 02:48:25;;;;;;;6.65;3.63;;;;;;;19.79;95.47;101814.09;4985999;28;20038;-61
2022/08/01 02:50:53;;;;;;;4.53;4.05;;;;;;;19.73;95.63;101811.75;5003685;28;20707;-62
2022/08/01 02:53:19;;;;;;;6.20;4.07;;;;;;;19.74;95.21;101809.97;4986100;28;20649;-61
2022/08/01 02:55:47;;;;;;;7.95;4.00;;;;;;;19.70;95.29;101811.94;4985583;28;20026;-61
2022/08/01 02:58:16;;;;;;;5.65;4.35;;;;;;;19.64;95.32;101804.25;4986563;28;20034;-61
2022/08/01 03:00:45;;;;;;;6.72;4.13;;;;;;;19.64;94.82;101805.13;4985787;28;20026;-61
2022/08/01 03:03:12;;;;;;;9.52;4.43;;;;;;;19.55;95.29;101802.97;4986606;28;20041;-61
2022/08/01 03:05:39;;;;;;;5.45;4.18;;;;;;;19.51;95.75;101807.63;4985955;28;20109;-61
2022/08/01 03:08:06;;;;;;;5.75;3.92;;;;;;;19.44;96.07;101806.25;4986825;28;20104;-61
2022/08/01 03:10:33;;;;;;;6.85;4.75;;;;;;;19.40;95.87;101816.28;4985838;28;20026;-61
2022/08/01 03:13:00;;;;;;;7.57;4.32;;;;;;;19.41;95.83;101811.75;4987072;28;20062;-61
2022/08/01 03:15:26;;;;;;;7.95;4.20;;;;;;;19.38;95.97;101815.47;5004045;28;20101;-61
2022/08/01 03:17:52;;;;;;;6.18;4.15;;;;;;;19.38;96.08;101812.81;4986004;28;20018;-61
2022/08/01 03:20:19;;;;;;;6.93;4.68;;;;;;;19.42;95.99;101813.50;4985835;28;20053;-60
2022/08/01 03:22:46;;;;;;;5.03;4.22;;;;;;;19.37;96.21;101821.78;4985033;28;20468;-61
2022/08/01 03:25:12;;;;;;;5.47;4.20;;;;;;;19.36;96.60;101819.19;5001086;28;20030;-61
2022/08/01 03:27:40;;;;;;;9.85;5.03;;;;;;;19.41;96.16;101822.47;4989502;28;20061;-62
2022/08/01 03:30:06;;;;;;;8.02;4.20;;;;;;;19.36;95.75;101816.53;4989378;28;20081;-61
2022/08/01 03:32:31;;;;;;;4.60;4.00;;;;;;;19.40;96.16;101826.09;5007230;28;20044;-62
2022/08/01 03:34:57;;;;;;;5.47;4.07;;;;;;;19.34;96.17;101821.94;5006509;28;20441;-61
2022/08/01 03:37:26;;;;;;;6.60;3.90;;;;;;;19.30;96.53;101823.06;4989682;28;20061;-62
2022/08/01 03:40:06;;;;;;;6.93;4.30;;;;;;;19.32;96.04;101827.38;4989510;28;20033;-61
2022/08/01 03:42:34;;;;;;;8.30;4.45;;;;;;;19.35;95.99;101826.34;4988762;28;20026;-61
2022/08/01 03:45:04;;;;;;;6.70;4.60;;;;;;;19.38;96.28;101830.69;4989622;28;20029;-61
2022/08/01 03:47:33;;;;;;;6.35;4.20;;;;;;;19.36;96.02;101824.53;5006265;28;20033;-60
2022/08/01 03:49:59;;;;;;;6.93;4.32;;;;;;;19.41;95.77;101823.34;4988837;28;20033;-60
2022/08/01 03:52:25;;;;;;;6.50;4.03;;;;;;;19.36;95.74;101820.06;4989265;28;20429;-61
2022/08/01 03:54:52;;;;;;;8.55;4.72;;;;;;;19.37;95.90;101821.78;4988768;28;20048;-62
2022/08/01 03:57:18;;;;;;;7.63;3.92;;;;;;;19.36;96.13;101819.19;4988576;28;20030;-61
2022/08/01 03:59:44;;;;;;;11.20;4.63;;;;;;;19.36;95.81;101813.84;5005883;28;20030;-61
2022/08/01 04:02:09;;;;;;;6.88;4.18;;;;;;;19.31;96.33;101817.66;4987018;28;20022;-61
2022/08/01 04:04:35;;;;;;;8.82;3.88;;;;;;;19.34;96.09;101821.94;5006724;28;20036;-61
2022/08/01 04:07:06;;;;;;;6.05;3.20;;;;;;;19.34;96.52;101816.59;5006149;28;20380;-61
2022/08/01 04:09:31;;;;;;;5.43;3.30;;;;;;;19.37;95.91;101811.09;5004049;28;20044;-61
2022/08/01 04:11:59;;;;;;;4.90;3.53;;;;;;;19.34;95.94;101813.94;5006364;28;20018;-61
2022/08/01 04:14:26;;;;;;;7.63;3.60;;;;;;;19.32;95.72;101808.69;5006790;28;20010;-61
2022/08/01 04:16:51;;;;;;;5.18;3.25;;;;;;;19.28;96.30;101815.16;5005801;28;20034;-61
2022/08/01 04:19:16;;;;;;;4.63;3.03;;;;;;;19.26;96.21;101816.19;5005966;28;20034;-61
2022/08/01 04:21:42;;;;;;;5.45;2.90;;;;;;;19.27;96.37;101826.75;5006323;28;20033;-62
2022/08/01 04:24:12;;;;;;;7.88;3.35;;;;;;;19.30;96.34;101823.06;4987708;28;20030;-62
2022/08/01 04:26:38;;;;;;;4.65;3.10;;;;;;;19.28;96.20;101827.63;4988763;28;20459;-62
2022/08/01 04:29:05;;;;;;;4.60;3.13;;;;;;;19.19;96.51;101824.53;5006315;28;20025;-61
2022/08/01 04:31:31;;;;;;;6.20;2.88;;;;;;;19.22;96.46;101828.84;4987550;28;20022;-61
2022/08/01 04:33:57;;;;;;;4.55;3.13;;;;;;;19.22;96.64;101827.97;5006385;28;20041;-61
2022/08/01 04:36:24;;;;;;;6.60;2.60;;;;;;;19.23;96.98;101832.38;4987751;28;20263;-61
2022/08/01 04:38:52;;;;;;;4.78;2.95;;;;;;;19.25;96.84;101838.50;4988027;28;20037;-63
2022/08/01 04:41:18;;;;;;;5.97;3.10;;;;;;;19.37;96.78;101835.16;4987675;28;20447;-62
2022/08/01 04:43:44;;;;;;;3.53;2.85;;;;;;;19.42;96.68;101838.41;5005200;28;20038;-60
2022/08/01 04:46:09;;;;;;;7.28;3.00;;;;;;;19.50;96.16;101837.16;5005446;28;20018;-62
2022/08/01 04:48:37;;;;;;;3.20;2.80;;;;;;;19.52;96.52;101838.78;4988564;28;20025;-61
2022/08/01 04:51:03;;;;;;;3.85;2.78;;;;;;;19.59;96.36;101843.78;5006011;28;20018;-62
2022/08/01 04:53:28;;;;;;;3.97;2.53;;;;;;;19.65;95.98;101846.94;5004437;28;20070;-62
2022/08/01 04:55:54;;;;;;;3.80;2.90;;;;;;;19.72;95.62;101846.59;5005447;28;20041;-61
2022/08/01 04:58:19;;;;;;;4.90;2.60;;;;;;;19.74;95.47;101844.72;5004587;28;20080;-61
2022/08/01 05:00:47;;;;;;;4.15;2.53;;;;;;;19.76;95.60;101848.16;5003672;28;20065;-61
2022/08/01 05:03:13;;;;;;;3.63;2.47;;;;;;;19.75;95.60;101844.59;5005537;28;20010;-61
2022/08/01 05:05:38;;;;;;;4.30;2.85;;;;;;;19.77;95.71;101855.22;5004600;28;20112;-61
2022/08/01 05:08:05;;;;;;;7.30;3.03;;;;;;;19.81;95.73;101856.78;5005734;28;20119;-62
2022/08/01 05:10:31;;;;;;;5.93;3.03;;;;;;;19.83;95.30;101854.88;5004319;28;20464;-62
2022/08/01 05:12:56;;;;;;;3.45;2.53;;;;;;;19.89;95.53;101854.53;4996033;28;20211;-62
2022/08/01 05:15:22;;;;;;;4.82;2.72;;;;;;;19.94;95.40;101851.59;4994125;28;20385;-62
2022/08/01 05:17:47;;;;;;;8.30;3.67;;;;;;;19.95;95.35;101847.94;4996164;28;20731;-62
2022/08/01 05:20:12;;;;;;;4.45;2.70;;;;;;;19.99;94.84;101848.66;5002635;28;20034;-63
2022/08/01 05:22:38;;;;;;;3.90;2.33;;;;;;;20.02;94.97;101848.50;5005281;28;20117;-62
2022/08/01 05:25:07;;;;;;;10.50;3.72;;;;;;;20.06;94.72;101850.03;5002922;28;20443;-63
2022/08/01 05:27:38;;;;;;;4.22;3.20;;;;;;;20.08;94.72;101849.00;4996230;28;20015;-61
2022/08/01 05:30:03;;;;;;;10.32;3.53;;;;;;;20.12;94.72;101847.00;4995347;28;20030;-62
2022/08/01 05:32:30;;;;;;;5.57;3.30;;;;;;;20.11;94.75;101847.97;4995359;28;20031;-61
2022/08/01 05:34:55;;;;;;;4.55;2.75;;;;;;;20.20;94.32;101854.59;4992513;28;20023;-61
2022/08/01 05:37:20;;;;;;;5.78;3.10;;;;;;;20.20;93.99;101852.75;4994052;28;20107;-63
2022/08/01 05:39:46;;;;;;;3.85;2.65;;;;;;;20.27;94.12;101847.06;4992120;28;20118;-62
2022/08/01 05:42:11;;;;;;;3.45;2.00;;;;;;;20.26;93.44;101858.72;4993013;28;20740;-62
2022/08/01 05:44:36;;;;;;;4.18;2.15;;;;;;;20.16;92.68;101861.06;4994986;28;20025;-61
2022/08/01 05:47:02;;;;;;;4.10;2.50;;;;;;;20.11;93.79;101861.34;4994025;28;20487;-61
2022/08/01 05:49:28;;;;;;;3.15;2.20;;;;;;;20.03;93.53;101860.91;4993811;28;20033;-61
2022/08/01 05:51:53;;;;;;;6.07;2.40;;;;;;;19.88;94.93;101863.50;4997690;28;20153;-61
2022/08/01 05:54:18;;;;;;;2.50;2.30;;;;;;;19.95;94.41;101872.91;4986137;28;20443;-61
2022/08/01 05:56:43;;;;;;;5.78;2.50;;;;;;;19.85;93.88;101874.38;5003776;28;20045;-62
2022/08/01 05:59:09;;;;;;;5.13;2.67;;;;;;;19.88;94.11;101876.00;5003512;28;20038;-61
2022/08/01 06:01:34;;;;;;;8.40;3.05;;;;;;;19.86;94.21;101876.09;5004577;28;20022;-62
2022/08/01 06:03:59;;;;;;;4.18;2.80;;;;;;;19.85;94.35;101877.03;5004022;28;20085;-62
2022/08/01 06:06:25;;;;;;;3.35;2.90;;;;;;;19.78;95.35;101875.69;4994888;28;20018;-62
2022/08/01 06:08:51;;;;;;;3.72;3.40;;;;;;;19.78;95.60;101881.03;4976331;28;20113;-62
2022/08/01 06:11:17;;;;;;;6.20;3.92;;;;;;;19.80;95.71;101881.78;5001069;28;20054;-61
2022/08/01 06:13:42;;;;;;;5.13;3.90;;;;;;;19.81;96.06;101884.38;5004586;28;20072;-61
2022/08/01 06:16:08;;;;;;;4.70;4.20;;;;;;;19.93;95.40;101882.81;5004267;28;20407;-64
2022/08/01 06:18:33;;;;;;;5.18;3.95;;;;;;;19.89;95.46;101878.59;5005016;28;20026;-61
2022/08/01 06:20:58;;;;;;;5.60;4.28;;;;;;;19.84;95.87;101883.34;5004396;28;20384;-62
2022/08/01 06:23:24;;;;;;;6.50;4.75;;;;;;;19.89;96.05;101886.63;5004488;28;20022;-60
2022/08/01 06:25:53;;;;;;;5.75;4.50;;;;;;;20.00;95.19;101887.81;5003924;28;20022;-62
2022/08/01 06:28:19;;;;;;;7.32;4.82;;;;;;;20.19;95.74;101882.28;4985945;28;20033;-62
2022/08/01 06:30:44;;;;;;;6.40;4.70;;;;;;;20.29;94.93;101887.97;5003597;28;20026;-62
2022/08/01 06:33:09;;;;;;;8.30;4.90;;;;;;;20.37;94.41;101888.38;5003487;28;20033;-63
2022/08/01 06:35:35;;;;;;;8.25;4.68;;;;;;;20.47;93.05;101890.50;5001691;28;20025;-63
2022/08/01 06:38:02;;;;;;;7.28;5.10;;;;;;;20.51;92.35;101892.91;4998916;28;20019;-65
2022/08/01 06:40:27;;;;;;;10.95;5.22;;;;;;;20.54;92.14;101903.44;4975005;28;20025;-63
2022/08/01 06:42:53;;;;;;;10.23;5.22;;;;;;;20.58;91.67;101898.75;4995876;28;20436;-63
2022/08/01 06:45:22;;;;;;;9.30;5.03;;;;;;;20.54;91.38;101899.91;4992205;28;20026;-64
2022/08/01 06:47:47;;;;;;;12.43;5.00;;;;;;;20.58;91.24;101904.09;4990805;28;20050;-64
2022/08/01 06:50:14;;;;;;;15.90;5.65;;;;;;;20.44;91.44;101902.28;5003582;28;20127;-65
2022/08/01 06:52:40;;;;;;;20.90;5.95;;;;;;;20.14;92.02;101909.31;5003740;28;20037;-64
2022/08/01 06:55:05;;;;;;;22.42;6.13;;;;;;;20.17;91.24;101911.81;5004031;28;20030;-64
2022/08/01 06:57:31;;;;;;;17.70;6.50;;;;;;;19.97;92.53;101909.38;5002752;28;20037;-66
2022/08/01 06:59:56;;;;;;;17.58;6.60;;;;;;;20.03;92.01;101907.25;5005564;28;20041;-65
2022/08/01 07:02:22;;;;;;;21.30;7.00;;;;;;;19.98;92.11;101905.78;5007370;28;20026;-64
2022/08/01 07:04:47;;;;;;;21.65;6.35;;;;;;;20.05;91.34;101918.72;5007051;28;20029;-63
2022/08/01 07:07:13;;;;;;;20.33;6.22;;;;;;;20.08;91.46;101915.03;5006767;28;20022;-65
2022/08/01 07:09:41;;;;;;;25.80;7.15;;;;;;;20.09;90.81;101927.44;4989157;28;20045;-64
2022/08/01 07:12:06;;;;;;;25.10;7.47;;;;;;;20.10;91.06;101921.13;5005921;28;20037;-65
2022/08/01 07:14:32;;;;;;;21.65;7.00;;;;;;;20.04;90.29;101922.34;5007437;28;20014;-63
2022/08/01 07:16:57;;;;;;;19.30;7.47;;;;;;;20.18;88.81;101929.59;5006383;28;20112;-66
2022/08/01 07:19:22;;;;;;;19.83;6.65;;;;;;;20.13;90.14;101918.28;4999983;28;20072;-62
2022/08/01 07:21:47;;;;;;;18.88;6.40;;;;;;;20.35;88.35;101922.41;4987616;28;20050;-66
2022/08/01 07:24:14;;;;;;;22.02;6.82;;;;;;;20.50;88.53;101933.16;4986751;28;20105;-65
2022/08/01 07:26:44;;;;;;;20.67;5.97;;;;;;;20.54;87.42;101937.38;4986519;28;20026;-64
2022/08/01 07:29:09;;;;;;;20.90;6.03;;;;;;;20.48;86.90;101935.06;4987821;28;20034;-64
2022/08/01 07:31:34;;;;;;;21.75;5.65;;;;;;;20.64;86.77;101937.69;4999942;28;20422;-65
2022/08/01 07:34:00;;;;;;;22.50;4.85;;;;;;;20.62;86.75;101940.44;5006455;28;20058;-64
2022/08/01 07:36:25;;;;;;;18.85;4.85;;;;;;;20.71;84.41;101949.78;5005837;28;20049;-64
2022/08/01 07:38:50;;;;;;;15.75;4.80;;;;;;;20.61;85.06;101948.56;5005139;28;20470;-65
2022/08/01 07:41:16;;;;;;;23.77;5.50;;;;;;;20.66;85.01;101950.03;5006519;28;20499;-65
2022/08/01 07:43:41;;;;;;;22.38;4.32;;;;;;;20.60;84.35;101946.84;5005851;28;20045;-65
2022/08/01 07:46:07;;;;;;;16.20;4.15;;;;;;;20.56;85.25;101959.56;5007195;28;20025;-65
2022/08/01 07:48:32;;;;;;;20.00;3.67;;;;;;;20.52;84.16;101958.00;5006876;28;20084;-63
2022/08/01 07:50:58;;;;;;;18.75;3.80;;;;;;;20.52;83.55;101963.38;5006322;28;20075;-64
2022/08/01 07:53:23;;;;;;;18.88;3.58;;;;;;;20.51;82.40;101965.19;4989190;28;20101;-65
2022/08/01 07:55:49;;;;;;;15.63;3.13;;;;;;;20.62;82.69;101969.91;5006036;28;20388;-64
2022/08/01 07:58:14;;;;;;;13.65;3.47;;;;;;;20.55;83.34;101972.09;4987327;28;20044;-64
2022/08/01 08:00:40;;;;;;;19.38;3.38;;;;;;;20.84;82.72;101965.97;5005639;28;20196;-65
2022/08/01 08:03:05;;;;;;;15.05;3.60;;;;;;;20.99;82.57;101971.38;5005671;28;20015;-65
2022/08/01 08:05:32;;;;;;;15.73;3.33;;;;;;;21.21;80.81;101969.13;4987830;28;20049;-64
2022/08/01 08:07:58;;;;;;;9.40;2.90;;;;;;;21.50;80.05;101973.63;5005891;28;20089;-64
2022/08/01 08:10:23;;;;;;;14.77;3.05;;;;;;;21.57;80.07;101971.41;5004953;28;20050;-65
2022/08/01 08:12:48;;;;;;;11.07;2.70;;;;;;;21.61;79.22;101972.94;5006136;28;20037;-65
2022/08/01 08:15:14;;;;;;;14.38;3.45;;;;;;;21.49;78.48;101976.41;4988928;28;20097;-64
2022/08/01 08:17:39;;;;;;;15.57;3.75;;;;;;;21.46;78.58;101975.63;4988991;28;20121;-64
2022/08/01 08:20:06;;;;;;;8.05;2.42;;;;;;;21.24;78.21;101983.25;5004063;28;20033;-66
2022/08/01 08:22:31;;;;;;;17.10;3.25;;;;;;;21.21;77.96;101985.19;5008414;28;20018;-63
2022/08/01 08:24:57;;;;;;;13.43;3.00;;;;;;;21.31;77.96;101981.97;5020910;28;20638;-64
2022/08/01 08:27:22;;;;;;;12.27;3.03;;;;;;;21.41;78.18;101980.44;5006062;28;20489;-63
2022/08/01 08:29:47;;;;;;;11.80;3.10;;;;;;;21.65;77.47;101978.97;4999234;28;20015;-64
2022/08/01 08:32:13;;;;;;;10.38;2.63;;;;;;;21.71;77.60;101979.44;4991168;28;20057;-65
2022/08/01 08:34:38;;;;;;;11.40;2.50;;;;;;;21.49;77.64;101985.28;4996500;28;20024;-64
2022/08/01 08:37:03;;;;;;;13.82;2.75;;;;;;;21.64;77.50;101983.47;4994081;28;20441;-64
2022/08/01 08:39:29;;;;;;;9.25;2.05;;;;;;;21.84;76.45;101982.25;4996159;28;20104;-65
2022/08/01 08:41:58;;;;;;;14.52;2.75;;;;;;;21.96;76.09;101982.41;4994192;28;20186;-64
2022/08/01 08:44:24;;;;;;;;;;;;;;;22.07;74.95;101982.56;4975874;28;20022;-63
2022/08/01 08:46:51;;;;;;;12.05;2.63;;;;;;;22.07;73.90;101985.25;4976670;28;19940;-64
2022/08/01 08:49:22;;;;;;;11.50;2.65;;;;;;;21.95;73.90;101980.69;4996616;28;20116;-64
2022/08/01 08:51:50;;;;;;;12.25;2.60;;;;;;;21.99;72.97;101994.75;5002124;28;20026;-63
2022/08/01 08:54:17;;;;;;;11.45;2.83;;;;;;;22.16;73.82;101986.50;5003916;28;20042;-63
2022/08/01 08:56:43;;;;;;;8.23;2.25;;;;;;;22.02;72.77;101986.50;5004139;28;20057;-65
2022/08/01 08:59:11;;;;;;;10.63;2.97;;;;;;;22.16;72.30;101985.63;5003807;28;20034;-64
2022/08/01 09:01:36;;;;;;;12.60;2.72;;;;;;;22.33;71.36;102000.59;5004533;28;20105;-64
2022/08/01 09:04:03;;;;;;;20.38;3.75;;;;;;;22.51;72.26;101993.16;4986123;28;20109;-63
2022/08/01 09:06:29;;;;;;;16.90;3.20;;;;;;;22.70;71.08;101997.34;4986255;28;20026;-63
2022/08/01 09:08:55;;;;;;;7.97;2.63;;;;;;;23.05;71.63;101995.88;5003443;28;20065;-64
2022/08/01 09:11:20;;;;;;;9.43;2.10;;;;;;;23.23;69.65;101999.09;5003183;28;20038;-64
2022/08/01 09:14:03;;;;;;;9.75;2.17;;;;;;;23.33;68.35;102004.72;5003297;28;20025;-63
2022/08/01 09:16:28;;;;;;;8.20;2.25;;;;;;;23.29;68.71;101993.31;5001644;28;20037;-64
2022/08/01 09:19:06;;;;;;;8.02;2.17;;;;;;;23.51;66.06;101997.19;5003653;28;20026;-65
2022/08/01 09:21:31;;;;;;;11.27;2.20;;;;;;;23.48;67.51;102002.81;5002069;28;20025;-63
2022/08/01 09:23:58;;;;;;;10.68;2.67;;;;;;;23.36;66.91;102004.50;5003023;28;20427;-64
2022/08/01 09:26:35;;;;;;;10.52;2.15;;;;;;;23.41;65.50;102006.88;5002986;28;20025;-64
2022/08/01 09:29:03;;;;;;;9.85;2.40;;;;;;;23.30;68.31;102002.25;5003220;28;20488;-64
2022/08/01 09:31:38;;;;;;;14.63;2.30;;;;;;;23.43;67.85;102002.25;5002949;28;20243;-64
2022/08/01 09:34:04;;;;;;;9.10;2.45;;;;;;;23.84;66.20;102013.72;5003954;28;20022;-63
2022/08/01 09:36:51;;;;;;;10.48;2.22;;;;;;;23.62;66.10;102014.41;5002964;28;20750;-63
2022/08/01 09:39:16;;;;;;;7.63;2.10;;;;;;;23.85;63.49;102019.00;5003242;28;20107;-63
2022/08/01 09:41:42;;;;;;;12.02;2.25;;;;;;;24.18;61.92;102021.19;5003404;28;20034;-63
2022/08/01 09:44:07;;;;;;;14.63;2.47;;;;;;;23.89;61.81;102018.75;5002983;28;20030;-64
2022/08/01 09:46:33;;;;;;;8.05;1.77;;;;;;;24.12;61.63;102017.09;5004196;28;20180;-65
2022/08/01 09:49:00;;;;;;;9.65;2.63;;;;;;;24.21;60.89;102011.06;4985978;28;20034;-63
2022/08/01 09:51:36;;;;;;;7.05;1.83;;;;;;;23.96;61.94;102022.75;5002809;28;20050;-63
2022/08/01 09:54:06;;;;;;;10.07;2.42;;;;;;;23.89;63.21;102016.94;5000430;28;20030;-64
2022/08/01 09:56:42;;;;;;;12.55;2.55;;;;;;;23.77;64.96;102017.81;4984162;28;20113;-62
2022/08/01 09:59:07;;;;;;;8.88;2.30;;;;;;;23.77;63.39;102015.13;4991761;28;20476;-65
2022/08/01 10:01:44;;;;;;;7.47;2.03;;;;;;;24.19;61.76;102018.38;4980774;28;20128;-63
2022/08/01 10:04:19;;;;;;;12.98;2.35;;;;;;;24.14;62.58;102020.53;4987204;28;20369;-65
2022/08/01 10:06:52;;;;;;;8.55;2.35;;;;;;;24.84;62.50;102022.59;5021490;28;20044;-65
2022/08/01 10:09:28;;;;;;;5.55;1.90;;;;;;;24.73;61.25;102031.50;5021970;28;20095;-64
2022/08/01 10:11:55;;;;;;;7.50;1.92;;;;;;;24.55;59.92;102018.44;5023261;28;20032;-65
2022/08/01 10:14:22;;;;;;;9.15;2.00;;;;;;;24.79;58.82;102019.38;5016999;28;20022;-65
2022/08/01 10:16:48;;;;;;;11.65;2.72;;;;;;;24.98;57.27;102018.84;4987066;28;20026;-64
2022/08/01 10:19:14;;;;;;;9.85;2.25;;;;;;;25.24;57.16;102024.94;5003698;28;20032;-64
2022/08/01 10:21:39;;;;;;;5.53;2.00;;;;;;;25.02;58.49;102024.88;4986472;28;20396;-64
2022/08/01 10:24:05;;;;;;;9.90;2.47;;;;;;;24.60;57.13;102021.63;4983161;28;20113;-64
2022/08/01 10:26:33;;;;;;;8.88;1.98;;;;;;;24.84;56.25;102023.44;5002806;28;20476;-65
2022/08/01 10:28:59;;;;;;;6.72;1.90;;;;;;;24.84;57.08;102017.22;4984969;28;20018;-65
2022/08/01 10:31:24;;;;;;;9.60;2.40;;;;;;;24.83;58.73;102019.03;4985105;28;20092;-66
2022/08/01 10:33:50;;;;;;;8.68;2.50;;;;;;;24.91;58.21;102013.09;4989419;28;20033;-62
2022/08/01 10:36:19;;;;;;;9.35;2.60;;;;;;;24.88;58.88;102023.25;4988697;28;20026;-68
2022/08/01 10:38:45;;;;;;;9.60;2.50;;;;;;;24.44;58.76;102026.50;4988077;28;20045;-64
2022/08/01 10:41:14;;;;;;;12.85;2.60;;;;;;;24.50;58.93;102030.56;4988965;28;20384;-64
2022/08/01 10:43:40;;;;;;;8.43;2.60;;;;;;;24.85;57.89;102029.69;4999654;28;20029;-64
2022/08/01 10:46:05;;;;;;;8.15;2.05;;;;;;;25.08;58.83;102032.50;5008070;28;20026;-65
2022/08/01 10:48:53;;;;;;;8.00;2.25;;;;;;;24.88;59.53;102028.63;4989162;28;20030;-66
2022/08/01 10:51:20;;;;;;;13.48;2.58;;;;;;;24.80;59.56;102031.91;5007801;28;20073;-64
2022/08/01 10:53:47;;;;;;;11.27;2.38;;;;;;;24.96;59.31;102032.44;4990054;28;20080;-65
2022/08/01 10:56:13;;;;;;;7.80;2.08;;;;;;;24.66;60.98;102023.03;5008217;28;20025;-64
2022/08/01 10:58:41;;;;;;;11.60;2.45;;;;;;;24.56;59.50;102025.53;5005834;28;20369;-64
2022/08/01 11:01:13;;;;;;;11.32;2.30;;;;;;;24.44;61.75;102029.19;5008402;28;20030;-64
2022/08/01 11:03:39;;;;;;;9.88;2.20;;;;;;;24.89;59.75;102017.72;5007168;28;20034;-63
2022/08/01 11:06:04;;;;;;;12.48;3.03;;;;;;;24.84;59.16;102028.00;5008048;28;20393;-64
2022/08/01 11:08:30;;;;;;;14.25;2.45;;;;;;;25.16;58.61;102045.41;4988955;28;20113;-63
2022/08/01 11:11:04;;;;;;;8.68;1.88;;;;;;;25.33;55.32;102038.66;5008003;28;20025;-65
2022/08/01 11:13:58;;;;;;;15.23;2.85;;;;;;;25.12;57.54;102042.06;5007669;28;20037;-66
2022/08/01 11:16:26;;;;;;;12.88;2.40;;;;;;;25.07;57.93;102045.13;5007725;28;20550;-65
2022/08/01 11:18:51;;;;;;;7.75;2.20;;;;;;;25.41;58.36;102041.63;5007163;28;20025;-65
2022/08/01 11:21:18;;;;;;;10.00;2.30;;;;;;;25.30;57.79;102036.22;5007479;28;20030;-63
2022/08/01 11:23:48;;;;;;;8.95;2.10;;;;;;;25.58;56.15;102040.28;5006518;28;20093;-64